Time;durP1;ratioP1;P1;durP2;ratioP2;P2;SDS_P1;SDS_P2;PMS_P1;PMS_P2;Temp;Humidity;BMP_temperature;BMP_pressure;BME280_temperature;BME280_humidity;BME280_pressure;Samples;Min_cycle;Max_cycle;Signal;HPM_P1;HPM_P2
2023/03/15 00:00:43;;;;;;;7.82;4.53;;;;;;;;;;4837878;29;20467;-77
2023/03/15 00:03:09;;;;;;;10.40;4.70;;;;;;;;;;4847625;29;20083;-77
2023/03/15 00:05:35;;;;;;;8.65;5.30;;;;;;;;;;4849938;29;20537;-77
2023/03/15 00:08:01;;;;;;;4.95;4.45;;;;;;;;;;4850197;29;20064;-77
2023/03/15 00:10:28;;;;;;;8.68;4.43;;;;;;;;;;4846324;29;20492;-77
2023/03/15 00:12:54;;;;;;;10.40;5.20;;;;;;;;;;4851168;29;20030;-78
2023/03/15 00:15:21;;;;;;;8.63;5.00;;;;;;;;;;4847333;29;20030;-77
2023/03/15 00:17:47;;;;;;;8.13;4.43;;;;;;;;;;4848719;29;20033;-77
2023/03/15 00:20:13;;;;;;;9.43;4.85;;;;;;;;;;4844616;29;20038;-77
2023/03/15 00:22:41;;;;;;;9.02;4.88;;;;;;;;;;4847791;29;20075;-77
2023/03/15 00:25:07;;;;;;;8.15;4.45;;;;;;;;;;4857572;29;20085;-77
2023/03/15 00:27:33;;;;;;;8.30;4.53;;;;;;;;;;4870727;29;20057;-78
2023/03/15 00:29:59;;;;;;;5.68;3.92;;;;;;;;;;4866407;29;20068;-78
2023/03/15 00:32:25;;;;;;;7.68;4.45;;;;;;;;;;4865735;29;20577;-77
2023/03/15 00:34:53;;;;;;;6.75;4.43;;;;;;;;;;4863703;29;20113;-77
2023/03/15 00:37:19;;;;;;;5.97;3.90;;;;;;;;;;4867485;29;20095;-78
2023/03/15 00:39:46;;;;;;;6.25;4.10;;;;;;;;;;4865963;29;20038;-78
2023/03/15 00:42:15;;;;;;;7.25;4.63;;;;;;;;;;4869431;29;20070;-77
2023/03/15 00:44:42;;;;;;;4.85;4.35;;;;;;;;;;4865288;29;20499;-77
2023/03/15 00:47:09;;;;;;;8.60;4.25;;;;;;;;;;4868277;29;20097;-77
2023/03/15 00:49:36;;;;;;;6.05;4.03;;;;;;;;;;4862869;29;20030;-77
2023/03/15 00:52:02;;;;;;;6.38;4.28;;;;;;;;;;4862788;29;20038;-77
2023/03/15 00:54:28;;;;;;;6.82;4.40;;;;;;;;;;4867609;29;20034;-77
2023/03/15 00:56:54;;;;;;;7.68;4.13;;;;;;;;;;4867922;29;20056;-77
2023/03/15 00:59:21;;;;;;;5.85;4.05;;;;;;;;;;4868336;29;20503;-77
2023/03/15 01:01:47;;;;;;;5.88;4.13;;;;;;;;;;4867716;29;20037;-77
2023/03/15 01:04:13;;;;;;;7.07;3.88;;;;;;;;;;4865936;29;20034;-77
2023/03/15 01:06:41;;;;;;;6.85;3.90;;;;;;;;;;4868325;29;20029;-77
2023/03/15 01:09:07;;;;;;;8.85;4.28;;;;;;;;;;4868047;29;20030;-77
2023/03/15 01:11:34;;;;;;;6.50;3.75;;;;;;;;;;4862191;29;20538;-77
2023/03/15 01:14:02;;;;;;;9.98;4.55;;;;;;;;;;4865197;29;20044;-76
2023/03/15 01:16:28;;;;;;;6.03;4.10;;;;;;;;;;4867410;29;20064;-78
2023/03/15 01:18:55;;;;;;;9.40;4.22;;;;;;;;;;4865143;29;20041;-76
2023/03/15 01:21:21;;;;;;;7.93;5.20;;;;;;;;;;4867672;29;20053;-77
2023/03/15 01:23:48;;;;;;;11.15;5.10;;;;;;;;;;4864568;29;20029;-77
2023/03/15 01:26:15;;;;;;;10.88;5.75;;;;;;;;;;4865072;29;20065;-76
2023/03/15 01:28:41;;;;;;;12.07;5.40;;;;;;;;;;4863789;29;20034;-80
2023/03/15 01:31:09;;;;;;;15.85;6.72;;;;;;;;;;4868950;29;20139;-77
2023/03/15 01:33:35;;;;;;;19.45;7.13;;;;;;;;;;4849531;29;20081;-77
2023/03/15 01:36:02;;;;;;;10.73;4.65;;;;;;;;;;4866797;29;20038;-77
2023/03/15 01:38:28;;;;;;;7.53;5.10;;;;;;;;;;4859603;29;20025;-77
2023/03/15 01:40:55;;;;;;;5.90;4.50;;;;;;;;;;4866665;29;20042;-77
2023/03/15 01:43:24;;;;;;;7.32;5.03;;;;;;;;;;4865922;29;20274;-76
2023/03/15 01:46:00;;;;;;;10.75;5.63;;;;;;;;;;4862960;29;20250;-76
2023/03/15 01:48:34;;;;;;;8.40;5.75;;;;;;;;;;4845297;29;20060;-76
2023/03/15 01:51:01;;;;;;;10.52;4.88;;;;;;;;;;4848028;29;20040;-76
2023/03/15 01:53:29;;;;;;;8.10;5.25;;;;;;;;;;4861760;29;20036;-76
2023/03/15 01:55:55;;;;;;;9.13;5.35;;;;;;;;;;4868661;29;20021;-76
2023/03/15 01:58:23;;;;;;;10.10;5.32;;;;;;;;;;4865010;29;20026;-76
2023/03/15 02:00:51;;;;;;;11.82;5.55;;;;;;;;;;4862545;29;20042;-76
2023/03/15 02:03:19;;;;;;;12.60;5.53;;;;;;;;;;4864089;29;20069;-76
2023/03/15 02:05:53;;;;;;;10.30;5.15;;;;;;;;;;4866900;29;20090;-76
2023/03/15 02:08:21;;;;;;;6.43;4.63;;;;;;;;;;4867717;29;20053;-77
2023/03/15 02:10:50;;;;;;;7.05;4.50;;;;;;;;;;4863342;29;20037;-76
2023/03/15 02:13:17;;;;;;;11.05;4.82;;;;;;;;;;4864463;29;20029;-76
2023/03/15 02:15:45;;;;;;;10.10;4.78;;;;;;;;;;4864356;29;20033;-76
2023/03/15 02:18:15;;;;;;;5.38;3.97;;;;;;;;;;4861453;29;20033;-77
2023/03/15 02:20:41;;;;;;;7.63;4.47;;;;;;;;;;4863812;29;20026;-78
2023/03/15 02:23:12;;;;;;;7.80;5.15;;;;;;;;;;4857209;29;20042;-76
2023/03/15 02:25:44;;;;;;;6.38;4.25;;;;;;;;;;4850380;29;20045;-76
2023/03/15 02:28:11;;;;;;;5.75;3.78;;;;;;;;;;4847801;29;20042;-76
2023/03/15 02:30:37;;;;;;;8.30;4.68;;;;;;;;;;4844722;29;20030;-76
2023/03/15 02:33:06;;;;;;;6.35;4.57;;;;;;;;;;4845782;29;20030;-76
2023/03/15 02:35:33;;;;;;;7.40;4.03;;;;;;;;;;4846818;29;20413;-76
2023/03/15 02:38:01;;;;;;;5.53;3.33;;;;;;;;;;4845845;29;20042;-76
2023/03/15 02:40:28;;;;;;;6.60;4.07;;;;;;;;;;4840420;29;20049;-75
2023/03/15 02:42:57;;;;;;;5.22;3.63;;;;;;;;;;4844486;29;20037;-76
2023/03/15 02:45:23;;;;;;;6.07;3.45;;;;;;;;;;4848481;29;20195;-76
2023/03/15 02:47:50;;;;;;;4.50;3.25;;;;;;;;;;4849447;29;20030;-75
2023/03/15 02:50:16;;;;;;;7.43;3.92;;;;;;;;;;4848585;29;20041;-76
2023/03/15 02:52:42;;;;;;;4.40;3.25;;;;;;;;;;4834763;29;20031;-75
2023/03/15 02:55:08;;;;;;;6.75;3.83;;;;;;;;;;4840607;29;20038;-76
2023/03/15 02:57:34;;;;;;;5.38;3.40;;;;;;;;;;4841193;29;20030;-76
2023/03/15 03:00:12;;;;;;;5.22;3.50;;;;;;;;;;4842748;29;20126;-76
2023/03/15 03:02:38;;;;;;;7.03;3.78;;;;;;;;;;4848227;29;20036;-77
2023/03/15 03:05:05;;;;;;;5.63;4.32;;;;;;;;;;4848288;29;20061;-77
2023/03/15 03:07:31;;;;;;;6.38;3.28;;;;;;;;;;4848199;29;20055;-77
2023/03/15 03:09:57;;;;;;;5.60;3.80;;;;;;;;;;4841895;29;20033;-76
2023/03/15 03:12:23;;;;;;;7.07;3.38;;;;;;;;;;4842746;29;20054;-76
2023/03/15 03:14:50;;;;;;;5.65;3.38;;;;;;;;;;4847599;29;20500;-77
2023/03/15 03:17:16;;;;;;;5.35;4.30;;;;;;;;;;4847998;29;20091;-78
2023/03/15 03:19:42;;;;;;;7.55;3.75;;;;;;;;;;4836027;29;20059;-77
2023/03/15 03:22:08;;;;;;;5.70;3.30;;;;;;;;;;4842946;29;20058;-77
2023/03/15 03:24:35;;;;;;;6.22;3.78;;;;;;;;;;4846796;29;20062;-76
2023/03/15 03:27:01;;;;;;;7.30;3.85;;;;;;;;;;4840405;29;21157;-76
2023/03/15 03:29:27;;;;;;;5.45;3.63;;;;;;;;;;4849525;29;20097;-76
2023/03/15 03:31:53;;;;;;;5.72;3.55;;;;;;;;;;4842752;29;20085;-76
2023/03/15 03:34:19;;;;;;;6.75;4.05;;;;;;;;;;4842265;29;20320;-76
2023/03/15 03:36:47;;;;;;;5.65;3.88;;;;;;;;;;4848183;29;20041;-77
2023/03/15 03:39:13;;;;;;;7.18;4.05;;;;;;;;;;4852841;29;20477;-76
2023/03/15 03:41:40;;;;;;;6.30;4.05;;;;;;;;;;4850457;29;20049;-76
2023/03/15 03:44:06;;;;;;;6.82;4.15;;;;;;;;;;4849052;29;20140;-76
2023/03/15 03:46:32;;;;;;;5.05;3.85;;;;;;;;;;4850028;29;20034;-75
2023/03/15 03:48:58;;;;;;;4.72;3.35;;;;;;;;;;4839564;29;20029;-75
2023/03/15 03:51:24;;;;;;;4.50;3.53;;;;;;;;;;4852305;29;20026;-77
2023/03/15 03:53:50;;;;;;;5.43;3.97;;;;;;;;;;4849282;29;20059;-76
2023/03/15 03:56:16;;;;;;;4.93;4.05;;;;;;;;;;4852013;29;20038;-76
2023/03/15 03:58:42;;;;;;;4.70;3.78;;;;;;;;;;4851789;29;20033;-76
2023/03/15 04:01:08;;;;;;;8.00;4.85;;;;;;;;;;4851893;29;20070;-76
2023/03/15 04:03:34;;;;;;;5.63;4.50;;;;;;;;;;4848793;29;20033;-76
2023/03/15 04:06:00;;;;;;;6.25;4.38;;;;;;;;;;4846807;29;20377;-76
2023/03/15 04:08:27;;;;;;;5.53;3.65;;;;;;;;;;4851394;29;20509;-75
2023/03/15 04:10:54;;;;;;;4.18;3.22;;;;;;;;;;4849750;29;20504;-76
2023/03/15 04:13:20;;;;;;;7.20;3.58;;;;;;;;;;4844541;29;20053;-74
2023/03/15 04:15:47;;;;;;;3.95;3.47;;;;;;;;;;4848808;29;20090;-75
2023/03/15 04:18:13;;;;;;;5.15;4.53;;;;;;;;;;4845890;29;20034;-75
2023/03/15 04:20:45;;;;;;;5.65;3.97;;;;;;;;;;4847114;29;20046;-76
2023/03/15 04:23:33;;;;;;;5.72;3.72;;;;;;;;;;4850661;29;20042;-75
2023/03/15 04:25:59;;;;;;;5.22;3.38;;;;;;;;;;4857539;29;20046;-75
2023/03/15 04:28:25;;;;;;;6.35;3.60;;;;;;;;;;4866379;29;20063;-75
2023/03/15 04:30:57;;;;;;;7.18;3.97;;;;;;;;;;4862689;29;20044;-76
2023/03/15 04:33:27;;;;;;;7.05;3.75;;;;;;;;;;4867669;29;20037;-76
2023/03/15 04:35:53;;;;;;;4.22;3.50;;;;;;;;;;4865792;29;20063;-77
2023/03/15 04:38:25;;;;;;;4.68;3.47;;;;;;;;;;4864138;29;20034;-76
2023/03/15 04:40:52;;;;;;;6.75;4.13;;;;;;;;;;4856300;29;20025;-75
2023/03/15 04:43:18;;;;;;;5.65;3.30;;;;;;;;;;4869092;29;20034;-76
2023/03/15 04:45:44;;;;;;;5.30;3.50;;;;;;;;;;4865837;29;20041;-76
2023/03/15 04:48:10;;;;;;;6.40;3.50;;;;;;;;;;4868322;29;20029;-76
2023/03/15 04:50:36;;;;;;;7.13;3.95;;;;;;;;;;4864318;29;20034;-76
2023/03/15 04:53:02;;;;;;;5.60;3.45;;;;;;;;;;4868238;29;20470;-76
2023/03/15 04:55:28;;;;;;;6.80;3.88;;;;;;;;;;4867743;29;20133;-76
2023/03/15 04:57:55;;;;;;;5.40;3.60;;;;;;;;;;4868063;29;20036;-75
2023/03/15 05:00:21;;;;;;;6.40;4.07;;;;;;;;;;4868869;29;20082;-76
2023/03/15 05:02:53;;;;;;;9.05;4.88;;;;;;;;;;4864207;29;20025;-77
2023/03/15 05:05:19;;;;;;;6.82;4.07;;;;;;;;;;4867124;29;20557;-76
2023/03/15 05:07:46;;;;;;;7.30;3.90;;;;;;;;;;4862059;29;20173;-76
2023/03/15 05:10:12;;;;;;;10.57;4.00;;;;;;;;;;4867097;29;20029;-76
2023/03/15 05:12:38;;;;;;;5.40;3.67;;;;;;;;;;4862791;29;20030;-75
2023/03/15 05:15:04;;;;;;;4.75;4.22;;;;;;;;;;4867436;29;20037;-76
2023/03/15 05:17:32;;;;;;;7.47;4.10;;;;;;;;;;4868853;29;20109;-76
2023/03/15 05:20:00;;;;;;;5.20;3.50;;;;;;;;;;4868279;29;20029;-76
2023/03/15 05:22:26;;;;;;;4.97;3.30;;;;;;;;;;4863627;29;20034;-76
2023/03/15 05:24:52;;;;;;;4.55;3.45;;;;;;;;;;4856766;29;20129;-77
2023/03/15 05:27:19;;;;;;;5.55;3.72;;;;;;;;;;4845336;29;20042;-76
2023/03/15 05:29:45;;;;;;;6.43;3.58;;;;;;;;;;4848523;29;20030;-77
2023/03/15 05:32:12;;;;;;;6.30;4.32;;;;;;;;;;4848494;29;20129;-76
2023/03/15 05:34:38;;;;;;;4.30;3.67;;;;;;;;;;4842902;29;20121;-76
2023/03/15 05:37:04;;;;;;;8.55;4.25;;;;;;;;;;4847875;29;20038;-77
2023/03/15 05:39:33;;;;;;;5.72;4.40;;;;;;;;;;4849518;29;20026;-76
2023/03/15 05:42:00;;;;;;;7.47;4.20;;;;;;;;;;4849351;29;20082;-75
2023/03/15 05:44:26;;;;;;;5.47;3.97;;;;;;;;;;4843779;29;20037;-76
2023/03/15 05:46:52;;;;;;;4.88;3.72;;;;;;;;;;4848877;29;20026;-76
2023/03/15 05:49:19;;;;;;;5.60;3.80;;;;;;;;;;4847183;29;20030;-76
2023/03/15 05:51:45;;;;;;;5.00;3.67;;;;;;;;;;4847952;29;20053;-76
2023/03/15 05:54:11;;;;;;;4.13;3.05;;;;;;;;;;4847677;29;20030;-77
2023/03/15 05:56:37;;;;;;;4.97;3.33;;;;;;;;;;4851676;29;20064;-75
2023/03/15 05:59:04;;;;;;;5.95;3.10;;;;;;;;;;4847635;29;20037;-75
2023/03/15 06:01:30;;;;;;;7.05;3.42;;;;;;;;;;4843607;29;20082;-75
2023/03/15 06:03:56;;;;;;;5.50;4.00;;;;;;;;;;4843191;29;20412;-75
2023/03/15 06:06:22;;;;;;;4.32;3.17;;;;;;;;;;4848121;29;20038;-75
2023/03/15 06:08:48;;;;;;;5.07;3.55;;;;;;;;;;4845851;29;20049;-76
2023/03/15 06:11:14;;;;;;;4.10;2.85;;;;;;;;;;4847571;29;20367;-76
2023/03/15 06:13:41;;;;;;;5.65;3.70;;;;;;;;;;4848231;29;20473;-76
2023/03/15 06:16:07;;;;;;;4.57;3.00;;;;;;;;;;4850157;29;20585;-75
2023/03/15 06:18:33;;;;;;;4.70;3.05;;;;;;;;;;4846013;29;20038;-76
2023/03/15 06:20:59;;;;;;;6.75;3.58;;;;;;;;;;4848418;29;20045;-76
2023/03/15 06:23:32;;;;;;;7.57;3.70;;;;;;;;;;5074005;28;20486;-75
2023/03/15 06:25:58;;;;;;;4.95;3.80;;;;;;;;;;5057969;28;20033;-75
2023/03/15 06:28:24;;;;;;;4.20;3.67;;;;;;;;;;5049823;28;20060;-77
2023/03/15 06:30:50;;;;;;;6.20;4.05;;;;;;;;;;5058794;28;20029;-76
2023/03/15 06:33:16;;;;;;;6.03;3.80;;;;;;;;;;5049794;28;20111;-76
2023/03/15 06:35:42;;;;;;;7.90;4.53;;;;;;;;;;5047732;28;20089;-75
2023/03/15 06:38:09;;;;;;;3.70;3.30;;;;;;;;;;5052830;28;20107;-76
2023/03/15 06:40:35;;;;;;;6.65;3.85;;;;;;;;;;5051200;28;20037;-77
2023/03/15 06:43:04;;;;;;;4.38;3.22;;;;;;;;;;5047725;28;20104;-77
2023/03/15 06:45:30;;;;;;;5.15;3.90;;;;;;;;;;5054416;28;20471;-77
2023/03/15 06:47:57;;;;;;;6.03;4.18;;;;;;;;;;5054192;28;20040;-76
2023/03/15 06:50:23;;;;;;;5.95;3.78;;;;;;;;;;5057099;28;20028;-77
2023/03/15 06:52:49;;;;;;;6.15;3.65;;;;;;;;;;5050346;28;20031;-76
2023/03/15 06:55:17;;;;;;;5.72;3.65;;;;;;;;;;5059321;28;20037;-76
2023/03/15 06:57:46;;;;;;;6.60;3.22;;;;;;;;;;5051064;28;20029;-76
2023/03/15 07:00:12;;;;;;;4.47;2.58;;;;;;;;;;5052876;28;20035;-77
2023/03/15 07:02:38;;;;;;;4.00;2.83;;;;;;;;;;5042365;28;20064;-76
2023/03/15 07:05:05;;;;;;;7.25;2.70;;;;;;;;;;5047665;28;20037;-76
2023/03/15 07:07:31;;;;;;;3.10;2.47;;;;;;;;;;5059113;28;20132;-76
2023/03/15 07:09:57;;;;;;;2.40;1.88;;;;;;;;;;5053017;28;20280;-77
2023/03/15 07:12:23;;;;;;;4.53;2.35;;;;;;;;;;5050437;28;20025;-77
2023/03/15 07:14:49;;;;;;;2.92;1.85;;;;;;;;;;5049396;28;20029;-77
2023/03/15 07:17:15;;;;;;;2.67;1.80;;;;;;;;;;5048979;28;20055;-77
2023/03/15 07:19:41;;;;;;;7.45;2.63;;;;;;;;;;5051178;28;20043;-77
2023/03/15 07:22:07;;;;;;;2.22;1.80;;;;;;;;;;5062345;28;20059;-77
2023/03/15 07:24:33;;;;;;;5.85;2.30;;;;;;;;;;5053334;28;20025;-76
2023/03/15 07:26:59;;;;;;;7.13;2.28;;;;;;;;;;5058752;28;20025;-77
2023/03/15 07:29:25;;;;;;;5.82;2.22;;;;;;;;;;5050817;28;20052;-77
2023/03/15 07:31:53;;;;;;;6.32;2.00;;;;;;;;;;5048214;28;20064;-77
2023/03/15 07:34:20;;;;;;;2.30;1.80;;;;;;;;;;5041356;28;20048;-77
2023/03/15 07:36:46;;;;;;;1.95;1.73;;;;;;;;;;5044355;28;20022;-77
2023/03/15 07:39:13;;;;;;;2.60;2.40;;;;;;;;;;5040769;28;20029;-78
2023/03/15 07:41:39;;;;;;;6.97;2.10;;;;;;;;;;5052577;28;20037;-77
2023/03/15 07:44:05;;;;;;;3.17;2.10;;;;;;;;;;5040661;28;20030;-76
2023/03/15 07:46:31;;;;;;;4.35;2.20;;;;;;;;;;5038148;28;20025;-76
2023/03/15 07:48:57;;;;;;;5.80;1.80;;;;;;;;;;5032622;28;20032;-77
2023/03/15 07:51:23;;;;;;;5.05;2.03;;;;;;;;;;5037638;28;20033;-76
2023/03/15 07:53:50;;;;;;;3.20;2.17;;;;;;;;;;5040884;28;20040;-77
2023/03/15 07:56:16;;;;;;;6.30;2.15;;;;;;;;;;5034235;28;20022;-76
2023/03/15 07:58:42;;;;;;;4.82;2.08;;;;;;;;;;5035061;28;20113;-78
2023/03/15 08:01:09;;;;;;;3.95;2.10;;;;;;;;;;5031989;28;20025;-77
2023/03/15 08:03:35;;;;;;;5.65;1.92;;;;;;;;;;5039489;28;20033;-76
2023/03/15 08:06:01;;;;;;;5.90;2.38;;;;;;;;;;5036092;28;20029;-77
2023/03/15 08:08:27;;;;;;;4.55;1.83;;;;;;;;;;5040135;28;20034;-76
2023/03/15 08:10:54;;;;;;;5.50;1.83;;;;;;;;;;5051836;28;20057;-77
2023/03/15 08:13:20;;;;;;;4.25;1.80;;;;;;;;;;5037058;28;20026;-77
2023/03/15 08:15:47;;;;;;;3.08;2.03;;;;;;;;;;5036888;28;20034;-77
2023/03/15 08:18:13;;;;;;;3.95;1.95;;;;;;;;;;5030313;28;20021;-77
2023/03/15 08:20:39;;;;;;;4.97;1.83;;;;;;;;;;5032848;28;20033;-77
2023/03/15 08:23:07;;;;;;;1.77;1.67;;;;;;;;;;5036965;28;20048;-78
2023/03/15 08:25:33;;;;;;;2.45;1.90;;;;;;;;;;5035953;28;20045;-78
2023/03/15 08:28:00;;;;;;;2.65;1.73;;;;;;;;;;5040422;28;20029;-77
2023/03/15 08:30:26;;;;;;;3.60;2.00;;;;;;;;;;5035039;28;20044;-77
2023/03/15 08:32:52;;;;;;;2.60;1.45;;;;;;;;;;5038945;28;20560;-77
2023/03/15 08:35:18;;;;;;;2.05;1.85;;;;;;;;;;5041163;28;20034;-78
2023/03/15 08:37:47;;;;;;;5.55;2.15;;;;;;;;;;5035559;28;20550;-78
2023/03/15 08:40:14;;;;;;;3.55;1.50;;;;;;;;;;5036536;28;20037;-77
2023/03/15 08:42:40;;;;;;;3.53;2.00;;;;;;;;;;5030350;28;20034;-78
2023/03/15 08:45:07;;;;;;;3.63;3.15;;;;;;;;;;5034461;28;20030;-77
2023/03/15 08:47:34;;;;;;;4.40;2.00;;;;;;;;;;5034134;28;20105;-76
2023/03/15 08:50:00;;;;;;;3.75;2.00;;;;;;;;;;5034341;28;20542;-78
2023/03/15 08:52:26;;;;;;;3.67;2.35;;;;;;;;;;5032169;28;20044;-77
2023/03/15 08:54:52;;;;;;;4.25;3.03;;;;;;;;;;5034469;28;20151;-77
2023/03/15 08:57:18;;;;;;;3.50;2.53;;;;;;;;;;5032063;28;20077;-77
2023/03/15 08:59:45;;;;;;;5.43;3.55;;;;;;;;;;5039686;28;20131;-78
2023/03/15 09:02:12;;;;;;;6.18;3.92;;;;;;;;;;5034414;28;20044;-78
2023/03/15 09:04:38;;;;;;;4.35;3.17;;;;;;;;;;5028273;28;20104;-78
2023/03/15 09:07:04;;;;;;;6.10;3.13;;;;;;;;;;5039081;28;20522;-78
2023/03/15 09:09:31;;;;;;;5.57;2.47;;;;;;;;;;5040965;28;20029;-77
2023/03/15 09:11:57;;;;;;;4.78;2.53;;;;;;;;;;5029821;28;20030;-78
2023/03/15 09:14:23;;;;;;;4.70;2.97;;;;;;;;;;5041792;28;20033;-77
2023/03/15 09:16:49;;;;;;;6.40;2.90;;;;;;;;;;5038044;28;20041;-78
2023/03/15 09:19:15;;;;;;;1.70;1.60;;;;;;;;;;5034524;28;20037;-79
2023/03/15 09:21:41;;;;;;;2.10;1.90;;;;;;;;;;5038139;28;20037;-78
2023/03/15 09:24:07;;;;;;;2.75;1.52;;;;;;;;;;5037444;28;20026;-78
2023/03/15 09:26:33;;;;;;;2.75;1.90;;;;;;;;;;5035809;28;20059;-77
2023/03/15 09:28:59;;;;;;;3.78;1.70;;;;;;;;;;5037341;28;20030;-77
2023/03/15 09:31:25;;;;;;;5.20;2.45;;;;;;;;;;5029967;28;20026;-78
2023/03/15 09:33:51;;;;;;;5.03;2.83;;;;;;;;;;5030958;28;20027;-78
2023/03/15 09:36:17;;;;;;;3.47;2.70;;;;;;;;;;5032422;28;20077;-77
2023/03/15 09:38:45;;;;;;;3.55;2.38;;;;;;;;;;5028594;28;20036;-79
2023/03/15 09:41:15;;;;;;;4.10;2.33;;;;;;;;;;5031506;28;20472;-78
2023/03/15 09:43:48;;;;;;;2.85;2.00;;;;;;;;;;5033742;28;20060;-78
2023/03/15 09:46:19;;;;;;;2.90;2.58;;;;;;;;;;5037445;28;20014;-78
2023/03/15 09:48:58;;;;;;;2.47;2.13;;;;;;;;;;5034022;28;20017;-79
2023/03/15 09:51:34;;;;;;;1.95;1.65;;;;;;;;;;5034124;28;20086;-78
2023/03/15 09:54:06;;;;;;;3.42;2.13;;;;;;;;;;5030723;28;20025;-78
2023/03/15 09:56:37;;;;;;;2.85;1.77;;;;;;;;;;5034229;28;20536;-79
2023/03/15 09:59:03;;;;;;;2.17;1.98;;;;;;;;;;5031069;28;20037;-77
2023/03/15 10:01:37;;;;;;;7.88;2.63;;;;;;;;;;5032354;28;20105;-77
2023/03/15 10:04:25;;;;;;;3.40;1.83;;;;;;;;;;5031878;28;20026;-78
2023/03/15 10:06:53;;;;;;;5.28;2.30;;;;;;;;;;5035449;28;20099;-77
2023/03/15 10:09:25;;;;;;;2.65;2.40;;;;;;;;;;5048135;28;20032;-78
2023/03/15 10:12:03;;;;;;;3.72;2.63;;;;;;;;;;5034766;28;20030;-78
2023/03/15 10:14:34;;;;;;;5.75;3.15;;;;;;;;;;5032668;28;20044;-78
2023/03/15 10:17:05;;;;;;;4.65;2.80;;;;;;;;;;5035969;28;20034;-78
2023/03/15 10:19:34;;;;;;;4.05;2.83;;;;;;;;;;5032110;28;20030;-79
2023/03/15 10:22:03;;;;;;;4.40;2.90;;;;;;;;;;5030839;28;20050;-78
2023/03/15 10:24:47;;;;;;;4.20;2.50;;;;;;;;;;5028883;28;20032;-80
2023/03/15 10:27:19;;;;;;;4.60;2.35;;;;;;;;;;5034795;28;20030;-78
2023/03/15 10:29:47;;;;;;;3.10;2.20;;;;;;;;;;5042574;28;20029;-78
2023/03/15 10:32:16;;;;;;;3.28;2.33;;;;;;;;;;5036329;28;20062;-78
2023/03/15 10:34:43;;;;;;;5.22;2.53;;;;;;;;;;5041446;28;20025;-78
2023/03/15 10:37:09;;;;;;;5.85;2.58;;;;;;;;;;5037914;28;20292;-78
2023/03/15 10:39:35;;;;;;;4.03;2.33;;;;;;;;;;5031445;28;20105;-78
2023/03/15 10:42:02;;;;;;;3.63;2.20;;;;;;;;;;5035456;28;20033;-78
2023/03/15 10:44:29;;;;;;;4.28;2.60;;;;;;;;;;5040885;28;20112;-78
2023/03/15 10:47:05;;;;;;;2.38;2.00;;;;;;;;;;5031348;28;20034;-79
2023/03/15 10:49:35;;;;;;;2.85;2.22;;;;;;;;;;5027979;28;20056;-77
2023/03/15 10:52:02;;;;;;;7.60;3.13;;;;;;;;;;5032817;28;20049;-78
2023/03/15 10:54:31;;;;;;;4.45;2.42;;;;;;;;;;5031987;28;20032;-78
2023/03/15 10:57:12;;;;;;;3.72;2.00;;;;;;;;;;5033533;28;20027;-78
2023/03/15 10:59:52;;;;;;;4.53;2.60;;;;;;;;;;5044030;28;20099;-78
2023/03/15 11:02:21;;;;;;;5.07;1.95;;;;;;;;;;5032646;28;20030;-78
2023/03/15 11:04:50;;;;;;;5.50;3.30;;;;;;;;;;5030090;28;20030;-79
2023/03/15 11:07:17;;;;;;;4.13;3.30;;;;;;;;;;5032731;28;20021;-78
2023/03/15 11:09:44;;;;;;;6.20;3.17;;;;;;;;;;5038217;28;20018;-78
2023/03/15 11:12:23;;;;;;;2.78;2.10;;;;;;;;;;5037795;28;20057;-79
2023/03/15 11:14:50;;;;;;;2.75;2.30;;;;;;;;;;5043193;28;20080;-78
2023/03/15 11:17:24;;;;;;;3.28;2.28;;;;;;;;;;5041100;28;20075;-78
2023/03/15 11:19:58;;;;;;;7.03;5.78;;;;;;;;;;5029917;28;20029;-77
2023/03/15 11:22:24;;;;;;;2.50;2.30;;;;;;;;;;5032141;28;20483;-78
2023/03/15 11:24:53;;;;;;;4.05;2.75;;;;;;;;;;5031503;28;20026;-78
2023/03/15 11:27:21;;;;;;;2.13;1.92;;;;;;;;;;5036843;28;20026;-78
2023/03/15 11:29:48;;;;;;;3.42;2.30;;;;;;;;;;5034898;28;20394;-78
2023/03/15 11:32:17;;;;;;;3.67;2.10;;;;;;;;;;5034261;28;20784;-77
2023/03/15 11:34:58;;;;;;;8.02;5.05;;;;;;;;;;5034194;28;20032;-76
2023/03/15 11:37:30;;;;;;;10.07;6.50;;;;;;;;;;5032102;28;20239;-77
2023/03/15 11:40:03;;;;;;;12.85;7.75;;;;;;;;;;5045482;28;20020;-77
2023/03/15 11:42:35;;;;;;;3.80;2.70;;;;;;;;;;5042917;28;20037;-77
2023/03/15 11:45:09;;;;;;;9.20;5.28;;;;;;;;;;5047381;28;20017;-77
2023/03/15 11:47:49;;;;;;;4.93;3.42;;;;;;;;;;5030863;28;20018;-78
2023/03/15 11:50:16;;;;;;;23.42;12.70;;;;;;;;;;5027870;28;20054;-77
2023/03/15 11:52:46;;;;;;;20.23;10.30;;;;;;;;;;5033293;28;20045;-79
2023/03/15 11:55:39;;;;;;;8.27;5.10;;;;;;;;;;5034474;28;20067;-78
2023/03/15 11:58:24;;;;;;;4.80;3.47;;;;;;;;;;5030878;28;20041;-78
2023/03/15 12:00:53;;;;;;;3.80;2.85;;;;;;;;;;5037108;28;20034;-79
2023/03/15 12:03:39;;;;;;;3.28;2.20;;;;;;;;;;5044338;28;20498;-80
2023/03/15 12:06:05;;;;;;;2.20;2.00;;;;;;;;;;5034631;28;20147;-78
2023/03/15 12:08:50;;;;;;;5.03;2.50;;;;;;;;;;5041196;28;20510;-79
2023/03/15 12:11:39;;;;;;;2.38;1.85;;;;;;;;;;5034864;28;20083;-78
2023/03/15 12:14:19;;;;;;;2.03;1.80;;;;;;;;;;5048450;28;20025;-78
2023/03/15 12:16:46;;;;;;;3.22;1.83;;;;;;;;;;5046710;28;20026;-79
2023/03/15 12:19:16;;;;;;;1.65;1.55;;;;;;;;;;5038817;28;20467;-79
2023/03/15 12:21:53;;;;;;;2.47;1.80;;;;;;;;;;5041467;28;20052;-79
2023/03/15 12:24:21;;;;;;;1.20;1.20;;;;;;;;;;5033524;28;20017;-79
2023/03/15 12:26:48;;;;;;;2.20;2.00;;;;;;;;;;5032656;28;20471;-78
2023/03/15 12:29:16;;;;;;;1.50;1.40;;;;;;;;;;5039722;28;20029;-77
2023/03/15 12:31:44;;;;;;;2.33;1.77;;;;;;;;;;5039849;28;20503;-78
2023/03/15 12:34:23;;;;;;;2.42;1.70;;;;;;;;;;5037889;28;20055;-78
2023/03/15 12:36:51;;;;;;;2.35;1.90;;;;;;;;;;5029797;28;20353;-79
2023/03/15 12:39:17;;;;;;;2.30;1.75;;;;;;;;;;5037803;28;20559;-78
2023/03/15 12:41:45;;;;;;;1.80;1.60;;;;;;;;;;5038447;28;20036;-78
2023/03/15 12:44:38;;;;;;;1.20;1.20;;;;;;;;;;5040185;28;20164;-79
2023/03/15 12:47:09;;;;;;;3.70;2.10;;;;;;;;;;5030810;28;20032;-78
2023/03/15 12:49:36;;;;;;;2.65;2.20;;;;;;;;;;5047555;28;20026;-78
2023/03/15 12:52:03;;;;;;;2.13;1.92;;;;;;;;;;5039140;28;20040;-79
2023/03/15 12:54:47;;;;;;;1.33;1.27;;;;;;;;;;5033180;28;20048;-80
2023/03/15 12:57:17;;;;;;;2.00;1.80;;;;;;;;;;5039281;28;20093;-79
2023/03/15 13:00:10;;;;;;;1.60;1.50;;;;;;;;;;5043261;28;20089;-78
2023/03/15 13:02:47;;;;;;;1.55;1.42;;;;;;;;;;5033419;28;20030;-78
2023/03/15 13:05:14;;;;;;;1.70;1.60;;;;;;;;;;5031230;28;20042;-79
2023/03/15 13:07:46;;;;;;;2.75;1.92;;;;;;;;;;5038954;28;20037;-78
2023/03/15 13:10:35;;;;;;;1.88;1.40;;;;;;;;;;5032771;28;20978;-79
2023/03/15 13:13:07;;;;;;;3.53;2.30;;;;;;;;;;5034067;28;20026;-79
2023/03/15 13:15:53;;;;;;;3.80;2.67;;;;;;;;;;5039298;28;20110;-79
2023/03/15 13:18:23;;;;;;;2.55;1.90;;;;;;;;;;5042833;28;20022;-78
2023/03/15 13:21:08;;;;;;;4.60;2.30;;;;;;;;;;5030667;28;20072;-80
2023/03/15 13:23:34;;;;;;;1.77;1.33;;;;;;;;;;5037820;28;20044;-79
2023/03/15 13:26:12;;;;;;;3.92;2.30;;;;;;;;;;5035802;28;20021;-80
2023/03/15 13:28:41;;;;;;;2.80;2.20;;;;;;;;;;5033938;28;20025;-78
2023/03/15 13:31:19;;;;;;;1.85;1.70;;;;;;;;;;5031473;28;20026;-79
2023/03/15 13:33:49;;;;;;;2.75;2.00;;;;;;;;;;5037396;28;20043;-79
2023/03/15 13:36:16;;;;;;;2.88;1.80;;;;;;;;;;5031951;28;20062;-79
2023/03/15 13:38:47;;;;;;;1.73;1.48;;;;;;;;;;5034162;28;20041;-78
2023/03/15 13:41:21;;;;;;;3.33;2.10;;;;;;;;;;5037424;28;20033;-79
2023/03/15 13:43:48;;;;;;;2.15;1.95;;;;;;;;;;5037695;28;20030;-78
2023/03/15 13:46:16;;;;;;;2.65;2.10;;;;;;;;;;5036731;28;20025;-78
2023/03/15 13:48:43;;;;;;;0.95;0.95;;;;;;;;;;5039206;28;20089;-79
2023/03/15 13:51:26;;;;;;;1.13;1.13;;;;;;;;;;5037182;28;20049;-78
2023/03/15 13:54:10;;;;;;;1.50;1.40;;;;;;;;;;5034391;28;20033;-81
2023/03/15 13:56:38;;;;;;;1.80;1.70;;;;;;;;;;5046202;28;20020;-81
2023/03/15 13:59:05;;;;;;;1.13;1.13;;;;;;;;;;5034387;28;20396;-81
2023/03/15 14:01:34;;;;;;;1.35;1.27;;;;;;;;;;5037646;28;20033;-79
2023/03/15 14:04:07;;;;;;;1.73;1.50;;;;;;;;;;5040069;28;20017;-81
2023/03/15 14:06:33;;;;;;;0.90;0.90;;;;;;;;;;5038022;28;20033;-81
2023/03/15 14:09:18;;;;;;;1.00;1.00;;;;;;;;;;5036403;28;20033;-81
2023/03/15 14:11:44;;;;;;;0.93;0.93;;;;;;;;;;5036252;28;20037;-81
2023/03/15 14:14:22;;;;;;;0.90;0.90;;;;;;;;;;5042617;28;20052;-81
2023/03/15 14:16:49;;;;;;;1.48;1.38;;;;;;;;;;5037869;28;20037;-80
2023/03/15 14:19:19;;;;;;;1.00;1.00;;;;;;;;;;5038370;28;20095;-80
2023/03/15 14:21:47;;;;;;;1.40;1.30;;;;;;;;;;5041319;28;20069;-81
2023/03/15 14:24:27;;;;;;;1.40;1.30;;;;;;;;;;5044694;28;20014;-80
2023/03/15 14:26:54;;;;;;;1.25;1.23;;;;;;;;;;5036768;28;20030;-80
2023/03/15 14:29:25;;;;;;;1.50;1.40;;;;;;;;;;5057901;28;20026;-82
2023/03/15 14:31:51;;;;;;;1.70;1.60;;;;;;;;;;5040735;28;20030;-79
2023/03/15 14:34:32;;;;;;;2.45;1.77;;;;;;;;;;5048793;28;20029;-78
2023/03/15 14:37:00;;;;;;;1.10;1.10;;;;;;;;;;5038496;28;20018;-80
2023/03/15 14:39:44;;;;;;;2.15;2.00;;;;;;;;;;5044143;28;20052;-80
2023/03/15 14:42:11;;;;;;;2.90;2.60;;;;;;;;;;5052776;28;20029;-81
2023/03/15 14:44:37;;;;;;;1.65;1.55;;;;;;;;;;5035184;28;20025;-81
2023/03/15 14:47:22;;;;;;;1.60;1.50;;;;;;;;;;5037330;28;20037;-80
2023/03/15 14:49:48;;;;;;;2.65;1.88;;;;;;;;;;5043583;28;20026;-81
2023/03/15 14:52:14;;;;;;;2.72;2.10;;;;;;;;;;5053245;28;20640;-81